Date,TemperatureHighF,TemperatureAvgF,TemperatureLowF,DewpointHighF,DewpointAvgF,DewpointLowF,HumidityHigh,HumidityAvg,HumidityLow,PressureMaxIn,PressureMinIn,WindSpeedMaxMPH,WindSpeedAvgMPH,GustSpeedMaxMPH,PrecipitationSumIn
2013-3-1,58,42,32,-100,-100,-100,0,0,100,0.00,40.00,11,0,11,0.00
2013-3-2,50,42,33,-100,-100,-100,0,0,100,0.00,40.00,10,0,10,0.00
2013-3-3,34,28,19,-100,-100,-100,0,0,100,0.00,40.00,6,0,6,0.00
2013-3-4,49,31,18,-100,-100,-100,0,0,100,0.00,40.00,5,0,5,0.00
2013-3-5,41,32,29,-100,-100,-100,0,0,100,0.00,40.00,8,0,8,0.00
2013-3-6,31,28,23,-100,-100,-100,0,0,100,0.00,40.00,24,4,24,0.00
2013-3-7,35,28,19,-100,-100,-100,0,0,100,0.00,40.00,0,0,0,0.00
2013-3-8,32,27,23,-100,-100,-100,0,0,100,0.00,40.00,10,0,10,0.00
2013-3-9,49,34,24,-100,-100,-100,0,0,100,0.00,40.00,6,0,6,0.01
2013-3-11,48,42,36,-100,-100,-100,0,0,100,0.00,40.00,11,0,11,0.00
2013-3-12,56,44,33,-100,-100,-100,0,0,100,0.00,40.00,24,4,24,0.00
2013-3-13,63,48,39,-100,-100,-100,0,0,100,0.00,40.00,12,0,12,0.00
2013-3-14,57,45,38,-100,-100,-100,0,0,100,0.00,40.00,20,4,20,0.00
2013-3-15,52,41,35,-100,-100,-100,0,0,100,0.00,40.00,15,2,15,0.00
2013-3-16,39,32,25,-100,-100,-100,0,0,100,0.00,40.00,42,5,42,0.00
2013-3-17,35,25,17,-100,-100,-100,0,0,100,0.00,40.00,42,4,42,0.00
2013-3-18,48,32,21,-100,-100,-100,0,0,100,0.00,40.00,6,0,6,0.00
2013-3-19,48,37,31,-100,-100,-100,0,0,100,0.00,40.00,12,1,12,0.02
2013-3-20,36,31,21,-100,-100,-100,0,0,100,0.00,40.00,33,7,33,0.02
2013-3-21,28,21,17,-100,-100,-100,0,0,100,0.00,40.00,25,5,25,0.00
2013-3-22,29,21,17,-100,-100,-100,0,0,100,0.00,40.00,17,2,17,0.00
2013-3-23,41,26,15,-100,-100,-100,0,0,100,0.00,40.00,1,0,1,0.00
2013-3-24,46,32,22,-100,-100,-100,0,0,100,0.00,40.00,0,0,0,0.00
2013-3-25,54,38,30,-100,-100,-100,0,0,100,0.00,40.00,0,0,0,0.00
2013-3-26,49,36,31,-100,-100,-100,0,0,100,0.00,40.00,0,0,0,0.00
2013-3-27,51,37,30,-100,-100,-100,0,0,100,0.00,40.00,4,0,4,0.00
2013-3-28,56,41,34,-100,-100,-100,0,0,100,0.00,40.00,0,0,0,0.00
2013-3-29,57,42,32,-100,-100,-100,0,0,100,0.00,40.00,0,0,0,0.00